sensor_id;sensor_type;location;lat;lon;timestamp;P1;durP1;ratioP1;P2;durP2;ratioP2
71475;SDS011;59286;59.274;17.974;2023-10-13T00:01:45;2.58;;;0.40;;
71475;SDS011;59286;59.274;17.974;2023-10-13T00:04:12;2.08;;;0.70;;
71475;SDS011;59286;59.274;17.974;2023-10-13T00:06:37;1.23;;;0.30;;
71475;SDS011;59286;59.274;17.974;2023-10-13T00:09:02;1.98;;;0.50;;
71475;SDS011;59286;59.274;17.974;2023-10-13T00:11:29;1.85;;;0.70;;
71475;SDS011;59286;59.274;17.974;2023-10-13T00:13:54;1.02;;;0.47;;
71475;SDS011;59286;59.274;17.974;2023-10-13T00:16:20;2.50;;;0.40;;
71475;SDS011;59286;59.274;17.974;2023-10-13T00:18:47;3.65;;;0.70;;
71475;SDS011;59286;59.274;17.974;2023-10-13T00:21:22;3.38;;;0.45;;
71475;SDS011;59286;59.274;17.974;2023-10-13T00:23:57;0.45;;;0.40;;
71475;SDS011;59286;59.274;17.974;2023-10-13T00:26:27;5.53;;;0.75;;
71475;SDS011;59286;59.274;17.974;2023-10-13T00:28:54;2.05;;;0.47;;
71475;SDS011;59286;59.274;17.974;2023-10-13T00:31:26;4.32;;;0.60;;
71475;SDS011;59286;59.274;17.974;2023-10-13T00:33:57;3.78;;;0.63;;
71475;SDS011;59286;59.274;17.974;2023-10-13T00:36:26;1.20;;;0.57;;
71475;SDS011;59286;59.274;17.974;2023-10-13T00:38:52;1.23;;;0.57;;
71475;SDS011;59286;59.274;17.974;2023-10-13T00:41:17;2.72;;;0.68;;
71475;SDS011;59286;59.274;17.974;2023-10-13T00:43:51;4.65;;;0.70;;
71475;SDS011;59286;59.274;17.974;2023-10-13T00:46:32;4.10;;;0.70;;
71475;SDS011;59286;59.274;17.974;2023-10-13T00:49:01;1.55;;;0.65;;
71475;SDS011;59286;59.274;17.974;2023-10-13T00:51:29;0.93;;;0.35;;
71475;SDS011;59286;59.274;17.974;2023-10-13T00:54:05;2.03;;;0.43;;
71475;SDS011;59286;59.274;17.974;2023-10-13T00:56:43;1.83;;;0.50;;
71475;SDS011;59286;59.274;17.974;2023-10-13T00:59:36;2.70;;;0.90;;
71475;SDS011;59286;59.274;17.974;2023-10-13T01:02:02;2.58;;;0.52;;
71475;SDS011;59286;59.274;17.974;2023-10-13T01:04:48;3.05;;;0.70;;
71475;SDS011;59286;59.274;17.974;2023-10-13T01:07:14;1.50;;;0.60;;
71475;SDS011;59286;59.274;17.974;2023-10-13T01:09:44;2.53;;;0.80;;
71475;SDS011;59286;59.274;17.974;2023-10-13T01:12:12;4.15;;;0.85;;
71475;SDS011;59286;59.274;17.974;2023-10-13T01:14:37;3.55;;;0.60;;
71475;SDS011;59286;59.274;17.974;2023-10-13T01:17:03;4.28;;;0.60;;
71475;SDS011;59286;59.274;17.974;2023-10-13T01:19:29;2.25;;;0.70;;
71475;SDS011;59286;59.274;17.974;2023-10-13T01:21:55;1.70;;;0.50;;
71475;SDS011;59286;59.274;17.974;2023-10-13T01:24:31;2.30;;;0.68;;
71475;SDS011;59286;59.274;17.974;2023-10-13T01:26:59;3.90;;;0.68;;
71475;SDS011;59286;59.274;17.974;2023-10-13T01:29:35;1.55;;;0.50;;
71475;SDS011;59286;59.274;17.974;2023-10-13T01:32:01;2.13;;;0.70;;
71475;SDS011;59286;59.274;17.974;2023-10-13T01:34:26;2.88;;;0.70;;
71475;SDS011;59286;59.274;17.974;2023-10-13T01:36:54;1.63;;;0.43;;
71475;SDS011;59286;59.274;17.974;2023-10-13T01:39:20;1.38;;;0.60;;
71475;SDS011;59286;59.274;17.974;2023-10-13T01:41:47;1.85;;;0.65;;
71475;SDS011;59286;59.274;17.974;2023-10-13T01:44:20;1.45;;;0.50;;
71475;SDS011;59286;59.274;17.974;2023-10-13T01:46:56;3.47;;;0.70;;
71475;SDS011;59286;59.274;17.974;2023-10-13T01:49:24;4.10;;;0.50;;
71475;SDS011;59286;59.274;17.974;2023-10-13T01:51:50;2.22;;;0.73;;
71475;SDS011;59286;59.274;17.974;2023-10-13T01:54:15;3.60;;;0.80;;
71475;SDS011;59286;59.274;17.974;2023-10-13T01:56:40;1.33;;;0.60;;
71475;SDS011;59286;59.274;17.974;2023-10-13T01:59:12;5.72;;;0.93;;
71475;SDS011;59286;59.274;17.974;2023-10-13T02:01:38;1.77;;;0.70;;
71475;SDS011;59286;59.274;17.974;2023-10-13T02:04:06;5.18;;;0.75;;
71475;SDS011;59286;59.274;17.974;2023-10-13T02:06:32;3.70;;;0.80;;
71475;SDS011;59286;59.274;17.974;2023-10-13T02:09:05;2.08;;;0.60;;
71475;SDS011;59286;59.274;17.974;2023-10-13T02:11:50;1.95;;;0.60;;
71475;SDS011;59286;59.274;17.974;2023-10-13T02:14:21;3.28;;;0.73;;
71475;SDS011;59286;59.274;17.974;2023-10-13T02:16:51;3.88;;;0.60;;
71475;SDS011;59286;59.274;17.974;2023-10-13T02:19:21;3.22;;;0.65;;
71475;SDS011;59286;59.274;17.974;2023-10-13T02:21:46;1.45;;;0.70;;
71475;SDS011;59286;59.274;17.974;2023-10-13T02:24:23;1.95;;;0.70;;
71475;SDS011;59286;59.274;17.974;2023-10-13T02:26:54;1.50;;;0.60;;
71475;SDS011;59286;59.274;17.974;2023-10-13T02:29:21;1.23;;;0.63;;
71475;SDS011;59286;59.274;17.974;2023-10-13T02:31:47;6.80;;;0.80;;
71475;SDS011;59286;59.274;17.974;2023-10-13T02:34:20;2.78;;;0.50;;
71475;SDS011;59286;59.274;17.974;2023-10-13T02:36:47;1.95;;;0.60;;
71475;SDS011;59286;59.274;17.974;2023-10-13T02:39:16;4.28;;;0.63;;
71475;SDS011;59286;59.274;17.974;2023-10-13T02:41:50;2.20;;;0.65;;
71475;SDS011;59286;59.274;17.974;2023-10-13T02:44:15;2.92;;;1.08;;
71475;SDS011;59286;59.274;17.974;2023-10-13T02:46:51;2.90;;;0.70;;
71475;SDS011;59286;59.274;17.974;2023-10-13T02:49:20;1.90;;;0.57;;
71475;SDS011;59286;59.274;17.974;2023-10-13T02:51:45;2.35;;;0.70;;
71475;SDS011;59286;59.274;17.974;2023-10-13T02:54:10;1.60;;;0.50;;
71475;SDS011;59286;59.274;17.974;2023-10-13T02:56:45;4.28;;;1.17;;
71475;SDS011;59286;59.274;17.974;2023-10-13T02:59:15;3.83;;;0.80;;
71475;SDS011;59286;59.274;17.974;2023-10-13T03:01:44;2.53;;;0.73;;
71475;SDS011;59286;59.274;17.974;2023-10-13T03:04:10;2.55;;;0.80;;
71475;SDS011;59286;59.274;17.974;2023-10-13T03:06:37;2.65;;;0.88;;
71475;SDS011;59286;59.274;17.974;2023-10-13T03:09:07;6.70;;;0.80;;
71475;SDS011;59286;59.274;17.974;2023-10-13T03:11:43;4.05;;;0.80;;
71475;SDS011;59286;59.274;17.974;2023-10-13T03:14:15;2.88;;;0.50;;
71475;SDS011;59286;59.274;17.974;2023-10-13T03:16:54;3.22;;;0.73;;
71475;SDS011;59286;59.274;17.974;2023-10-13T03:19:27;3.20;;;0.70;;
71475;SDS011;59286;59.274;17.974;2023-10-13T03:21:58;3.08;;;0.95;;
71475;SDS011;59286;59.274;17.974;2023-10-13T03:24:31;4.95;;;0.77;;
71475;SDS011;59286;59.274;17.974;2023-10-13T03:27:00;4.97;;;0.85;;
71475;SDS011;59286;59.274;17.974;2023-10-13T03:29:34;4.03;;;0.90;;
71475;SDS011;59286;59.274;17.974;2023-10-13T03:32:09;3.83;;;0.90;;
71475;SDS011;59286;59.274;17.974;2023-10-13T03:34:40;2.88;;;0.65;;
71475;SDS011;59286;59.274;17.974;2023-10-13T03:37:16;5.17;;;0.70;;
71475;SDS011;59286;59.274;17.974;2023-10-13T03:40:01;2.38;;;0.80;;
71475;SDS011;59286;59.274;17.974;2023-10-13T03:42:31;3.25;;;0.80;;
71475;SDS011;59286;59.274;17.974;2023-10-13T03:44:57;3.80;;;0.90;;
71475;SDS011;59286;59.274;17.974;2023-10-13T03:47:22;5.68;;;0.90;;
71475;SDS011;59286;59.274;17.974;2023-10-13T03:49:57;6.43;;;1.02;;
71475;SDS011;59286;59.274;17.974;2023-10-13T03:52:40;3.70;;;0.80;;
71475;SDS011;59286;59.274;17.974;2023-10-13T03:55:06;6.28;;;1.15;;
71475;SDS011;59286;59.274;17.974;2023-10-13T03:57:33;3.17;;;0.70;;
71475;SDS011;59286;59.274;17.974;2023-10-13T03:59:59;3.78;;;0.77;;
71475;SDS011;59286;59.274;17.974;2023-10-13T04:02:33;2.15;;;0.80;;
71475;SDS011;59286;59.274;17.974;2023-10-13T04:04:58;3.03;;;0.70;;
71475;SDS011;59286;59.274;17.974;2023-10-13T04:07:32;4.07;;;0.95;;
71475;SDS011;59286;59.274;17.974;2023-10-13T04:09:57;3.92;;;0.63;;
71475;SDS011;59286;59.274;17.974;2023-10-13T04:12:41;2.55;;;1.10;;
71475;SDS011;59286;59.274;17.974;2023-10-13T04:15:25;3.10;;;0.90;;
71475;SDS011;59286;59.274;17.974;2023-10-13T04:18:01;8.07;;;0.98;;
71475;SDS011;59286;59.274;17.974;2023-10-13T04:20:38;2.85;;;0.63;;
71475;SDS011;59286;59.274;17.974;2023-10-13T04:23:04;3.60;;;0.85;;
71475;SDS011;59286;59.274;17.974;2023-10-13T04:25:50;5.97;;;1.08;;
71475;SDS011;59286;59.274;17.974;2023-10-13T04:28:15;3.95;;;0.85;;
71475;SDS011;59286;59.274;17.974;2023-10-13T04:30:59;3.72;;;0.80;;
71475;SDS011;59286;59.274;17.974;2023-10-13T04:33:36;7.95;;;1.13;;
71475;SDS011;59286;59.274;17.974;2023-10-13T04:36:16;6.30;;;1.10;;
71475;SDS011;59286;59.274;17.974;2023-10-13T04:39:02;6.80;;;1.13;;
71475;SDS011;59286;59.274;17.974;2023-10-13T04:41:37;2.78;;;0.82;;
71475;SDS011;59286;59.274;17.974;2023-10-13T04:44:13;5.38;;;0.80;;
71475;SDS011;59286;59.274;17.974;2023-10-13T04:46:55;2.22;;;0.88;;
71475;SDS011;59286;59.274;17.974;2023-10-13T04:49:24;4.07;;;1.02;;
71475;SDS011;59286;59.274;17.974;2023-10-13T04:51:54;4.90;;;0.80;;
71475;SDS011;59286;59.274;17.974;2023-10-13T04:54:38;4.28;;;0.90;;
71475;SDS011;59286;59.274;17.974;2023-10-13T04:57:14;7.75;;;1.38;;
71475;SDS011;59286;59.274;17.974;2023-10-13T05:00:01;6.18;;;1.25;;
71475;SDS011;59286;59.274;17.974;2023-10-13T05:02:29;6.40;;;1.23;;
71475;SDS011;59286;59.274;17.974;2023-10-13T05:05:01;5.03;;;1.20;;
71475;SDS011;59286;59.274;17.974;2023-10-13T05:07:39;2.58;;;0.90;;
71475;SDS011;59286;59.274;17.974;2023-10-13T05:10:24;3.97;;;0.90;;
71475;SDS011;59286;59.274;17.974;2023-10-13T05:13:08;6.65;;;1.33;;
71475;SDS011;59286;59.274;17.974;2023-10-13T05:15:52;7.40;;;1.48;;
71475;SDS011;59286;59.274;17.974;2023-10-13T05:18:36;6.68;;;1.08;;
71475;SDS011;59286;59.274;17.974;2023-10-13T05:21:20;5.80;;;1.00;;
71475;SDS011;59286;59.274;17.974;2023-10-13T05:24:05;4.00;;;0.88;;
71475;SDS011;59286;59.274;17.974;2023-10-13T05:26:50;4.45;;;0.93;;
71475;SDS011;59286;59.274;17.974;2023-10-13T05:29:38;4.47;;;1.10;;
71475;SDS011;59286;59.274;17.974;2023-10-13T05:32:22;4.43;;;0.98;;
71475;SDS011;59286;59.274;17.974;2023-10-13T05:35:06;7.10;;;1.52;;
71475;SDS011;59286;59.274;17.974;2023-10-13T05:37:50;6.38;;;1.30;;
71475;SDS011;59286;59.274;17.974;2023-10-13T05:40:34;3.95;;;1.00;;
71475;SDS011;59286;59.274;17.974;2023-10-13T05:43:18;4.05;;;1.27;;
71475;SDS011;59286;59.274;17.974;2023-10-13T05:46:03;3.58;;;1.10;;
71475;SDS011;59286;59.274;17.974;2023-10-13T05:48:49;5.60;;;1.27;;
71475;SDS011;59286;59.274;17.974;2023-10-13T05:51:27;8.98;;;2.17;;
71475;SDS011;59286;59.274;17.974;2023-10-13T05:54:00;6.20;;;1.20;;
71475;SDS011;59286;59.274;17.974;2023-10-13T05:56:41;5.85;;;1.20;;
71475;SDS011;59286;59.274;17.974;2023-10-13T05:59:27;4.00;;;0.88;;
71475;SDS011;59286;59.274;17.974;2023-10-13T06:02:13;4.43;;;1.45;;
71475;SDS011;59286;59.274;17.974;2023-10-13T06:05:00;6.22;;;1.23;;
71475;SDS011;59286;59.274;17.974;2023-10-13T06:07:47;6.40;;;1.27;;
71475;SDS011;59286;59.274;17.974;2023-10-13T06:10:32;7.55;;;1.27;;
71475;SDS011;59286;59.274;17.974;2023-10-13T06:13:16;6.15;;;1.35;;
71475;SDS011;59286;59.274;17.974;2023-10-13T06:16:00;3.58;;;0.75;;
71475;SDS011;59286;59.274;17.974;2023-10-13T06:18:48;10.02;;;1.63;;
71475;SDS011;59286;59.274;17.974;2023-10-13T06:21:32;5.68;;;1.00;;
71475;SDS011;59286;59.274;17.974;2023-10-13T06:24:16;7.15;;;1.23;;
71475;SDS011;59286;59.274;17.974;2023-10-13T06:27:00;4.97;;;1.35;;
71475;SDS011;59286;59.274;17.974;2023-10-13T06:29:44;8.18;;;1.23;;
71475;SDS011;59286;59.274;17.974;2023-10-13T06:32:10;5.07;;;1.10;;
71475;SDS011;59286;59.274;17.974;2023-10-13T06:34:37;7.07;;;1.42;;
71475;SDS011;59286;59.274;17.974;2023-10-13T06:37:05;3.65;;;1.00;;
71475;SDS011;59286;59.274;17.974;2023-10-13T06:39:51;8.63;;;1.30;;
71475;SDS011;59286;59.274;17.974;2023-10-13T06:42:30;10.68;;;1.38;;
71475;SDS011;59286;59.274;17.974;2023-10-13T06:44:59;7.45;;;1.27;;
71475;SDS011;59286;59.274;17.974;2023-10-13T06:47:33;7.05;;;1.50;;
71475;SDS011;59286;59.274;17.974;2023-10-13T06:49:58;5.28;;;1.30;;
71475;SDS011;59286;59.274;17.974;2023-10-13T06:52:25;6.45;;;1.60;;
71475;SDS011;59286;59.274;17.974;2023-10-13T06:54:54;9.15;;;1.38;;
71475;SDS011;59286;59.274;17.974;2023-10-13T06:57:20;6.63;;;1.30;;
71475;SDS011;59286;59.274;17.974;2023-10-13T06:59:48;9.68;;;1.38;;
71475;SDS011;59286;59.274;17.974;2023-10-13T07:02:14;7.82;;;1.70;;
71475;SDS011;59286;59.274;17.974;2023-10-13T07:04:58;6.70;;;1.25;;
71475;SDS011;59286;59.274;17.974;2023-10-13T07:20:25;9.15;;;1.63;;
71475;SDS011;59286;59.274;17.974;2023-10-13T07:22:53;7.45;;;1.50;;
71475;SDS011;59286;59.274;17.974;2023-10-13T07:25:31;9.80;;;1.90;;
71475;SDS011;59286;59.274;17.974;2023-10-13T07:28:00;7.82;;;1.52;;
71475;SDS011;59286;59.274;17.974;2023-10-13T07:30:25;7.07;;;1.58;;
71475;SDS011;59286;59.274;17.974;2023-10-13T07:32:52;10.90;;;2.08;;
71475;SDS011;59286;59.274;17.974;2023-10-13T07:35:18;7.38;;;1.90;;
71475;SDS011;59286;59.274;17.974;2023-10-13T07:37:45;8.25;;;1.38;;
71475;SDS011;59286;59.274;17.974;2023-10-13T07:40:17;10.20;;;1.27;;
71475;SDS011;59286;59.274;17.974;2023-10-13T07:42:55;8.07;;;1.45;;
71475;SDS011;59286;59.274;17.974;2023-10-13T07:45:37;7.38;;;1.60;;
71475;SDS011;59286;59.274;17.974;2023-10-13T07:48:05;9.00;;;1.58;;
71475;SDS011;59286;59.274;17.974;2023-10-13T07:50:44;8.82;;;1.90;;
71475;SDS011;59286;59.274;17.974;2023-10-13T07:53:10;9.30;;;1.42;;
71475;SDS011;59286;59.274;17.974;2023-10-13T07:55:49;9.07;;;1.38;;
71475;SDS011;59286;59.274;17.974;2023-10-13T07:58:23;8.32;;;1.27;;
71475;SDS011;59286;59.274;17.974;2023-10-13T08:00:52;6.10;;;1.60;;
71475;SDS011;59286;59.274;17.974;2023-10-13T08:03:34;6.63;;;1.58;;
71475;SDS011;59286;59.274;17.974;2023-10-13T08:06:08;15.75;;;2.33;;
71475;SDS011;59286;59.274;17.974;2023-10-13T08:08:37;10.55;;;2.60;;
71475;SDS011;59286;59.274;17.974;2023-10-13T08:11:04;6.63;;;1.50;;
71475;SDS011;59286;59.274;17.974;2023-10-13T08:13:36;6.97;;;2.00;;
71475;SDS011;59286;59.274;17.974;2023-10-13T08:16:11;8.18;;;1.67;;
71475;SDS011;59286;59.274;17.974;2023-10-13T08:18:46;12.77;;;1.95;;
71475;SDS011;59286;59.274;17.974;2023-10-13T08:21:14;8.10;;;1.45;;
71475;SDS011;59286;59.274;17.974;2023-10-13T08:23:48;7.28;;;1.60;;
71475;SDS011;59286;59.274;17.974;2023-10-13T08:26:21;10.73;;;2.03;;
71475;SDS011;59286;59.274;17.974;2023-10-13T08:29:05;14.85;;;2.35;;
71475;SDS011;59286;59.274;17.974;2023-10-13T08:31:49;7.60;;;1.70;;
71475;SDS011;59286;59.274;17.974;2023-10-13T08:34:36;11.45;;;1.70;;
71475;SDS011;59286;59.274;17.974;2023-10-13T08:37:08;7.57;;;2.20;;
71475;SDS011;59286;59.274;17.974;2023-10-13T08:39:47;9.10;;;1.80;;
71475;SDS011;59286;59.274;17.974;2023-10-13T08:42:34;11.15;;;2.42;;
71475;SDS011;59286;59.274;17.974;2023-10-13T08:47:47;7.63;;;1.50;;
71475;SDS011;59286;59.274;17.974;2023-10-13T08:50:33;8.55;;;1.95;;
71475;SDS011;59286;59.274;17.974;2023-10-13T08:56:01;12.57;;;1.73;;
71475;SDS011;59286;59.274;17.974;2023-10-13T08:58:30;12.25;;;2.17;;
71475;SDS011;59286;59.274;17.974;2023-10-13T09:01:15;7.75;;;1.80;;
71475;SDS011;59286;59.274;17.974;2023-10-13T09:03:58;14.95;;;2.17;;
71475;SDS011;59286;59.274;17.974;2023-10-13T09:06:53;9.75;;;2.15;;
71475;SDS011;59286;59.274;17.974;2023-10-13T09:17:43;8.32;;;1.75;;
71475;SDS011;59286;59.274;17.974;2023-10-13T09:20:32;8.07;;;1.90;;
71475;SDS011;59286;59.274;17.974;2023-10-13T09:23:08;11.07;;;2.13;;
71475;SDS011;59286;59.274;17.974;2023-10-13T09:25:36;10.07;;;1.77;;
71475;SDS011;59286;59.274;17.974;2023-10-13T09:28:03;17.60;;;2.65;;
71475;SDS011;59286;59.274;17.974;2023-10-13T09:30:46;12.00;;;1.90;;
71475;SDS011;59286;59.274;17.974;2023-10-13T09:33:12;11.23;;;2.03;;
71475;SDS011;59286;59.274;17.974;2023-10-13T09:35:44;8.93;;;2.03;;
71475;SDS011;59286;59.274;17.974;2023-10-13T09:38:16;10.98;;;2.10;;
71475;SDS011;59286;59.274;17.974;2023-10-13T09:40:42;10.35;;;2.05;;
71475;SDS011;59286;59.274;17.974;2023-10-13T09:43:15;9.75;;;2.03;;
71475;SDS011;59286;59.274;17.974;2023-10-13T09:45:49;10.43;;;2.10;;
71475;SDS011;59286;59.274;17.974;2023-10-13T09:48:39;8.38;;;1.77;;
71475;SDS011;59286;59.274;17.974;2023-10-13T09:51:15;8.43;;;1.70;;
71475;SDS011;59286;59.274;17.974;2023-10-13T09:53:48;13.13;;;1.80;;
71475;SDS011;59286;59.274;17.974;2023-10-13T09:56:31;9.80;;;2.10;;
71475;SDS011;59286;59.274;17.974;2023-10-13T09:59:10;7.90;;;1.70;;
71475;SDS011;59286;59.274;17.974;2023-10-13T10:01:42;9.07;;;1.75;;
71475;SDS011;59286;59.274;17.974;2023-10-13T10:04:16;9.90;;;1.83;;
71475;SDS011;59286;59.274;17.974;2023-10-13T10:06:51;13.93;;;1.80;;
71475;SDS011;59286;59.274;17.974;2023-10-13T10:09:27;9.55;;;2.03;;
71475;SDS011;59286;59.274;17.974;2023-10-13T10:17:28;11.18;;;2.03;;
71475;SDS011;59286;59.274;17.974;2023-10-13T10:19:54;12.85;;;2.30;;
71475;SDS011;59286;59.274;17.974;2023-10-13T10:22:39;14.95;;;2.70;;
71475;SDS011;59286;59.274;17.974;2023-10-13T10:25:09;14.18;;;2.15;;
71475;SDS011;59286;59.274;17.974;2023-10-13T10:28:00;9.07;;;2.03;;
71475;SDS011;59286;59.274;17.974;2023-10-13T10:30:35;13.23;;;2.60;;
71475;SDS011;59286;59.274;17.974;2023-10-13T10:33:03;10.73;;;1.90;;
71475;SDS011;59286;59.274;17.974;2023-10-13T10:35:37;12.93;;;2.22;;
71475;SDS011;59286;59.274;17.974;2023-10-13T10:38:11;11.80;;;1.90;;
71475;SDS011;59286;59.274;17.974;2023-10-13T10:40:58;10.73;;;2.00;;
71475;SDS011;59286;59.274;17.974;2023-10-13T10:43:29;9.70;;;2.33;;
71475;SDS011;59286;59.274;17.974;2023-10-13T10:46:14;9.35;;;2.28;;
71475;SDS011;59286;59.274;17.974;2023-10-13T10:48:43;12.20;;;2.28;;
71475;SDS011;59286;59.274;17.974;2023-10-13T10:51:13;12.55;;;2.10;;
71475;SDS011;59286;59.274;17.974;2023-10-13T10:53:49;11.40;;;1.98;;
71475;SDS011;59286;59.274;17.974;2023-10-13T10:56:17;13.90;;;2.47;;
71475;SDS011;59286;59.274;17.974;2023-10-13T10:59:02;10.32;;;2.00;;
71475;SDS011;59286;59.274;17.974;2023-10-13T11:01:30;14.43;;;2.03;;
71475;SDS011;59286;59.274;17.974;2023-10-13T11:03:59;9.57;;;2.15;;
71475;SDS011;59286;59.274;17.974;2023-10-13T11:06:45;16.60;;;2.13;;
71475;SDS011;59286;59.274;17.974;2023-10-13T11:09:12;9.63;;;2.25;;
71475;SDS011;59286;59.274;17.974;2023-10-13T11:14:39;11.90;;;2.25;;
71475;SDS011;59286;59.274;17.974;2023-10-13T11:17:04;9.90;;;1.90;;
71475;SDS011;59286;59.274;17.974;2023-10-13T11:19:38;11.35;;;2.08;;
71475;SDS011;59286;59.274;17.974;2023-10-13T11:25:00;17.73;;;2.25;;
71475;SDS011;59286;59.274;17.974;2023-10-13T11:27:35;10.10;;;2.65;;
71475;SDS011;59286;59.274;17.974;2023-10-13T11:30:30;12.60;;;2.78;;
71475;SDS011;59286;59.274;17.974;2023-10-13T11:33:09;10.20;;;2.03;;
71475;SDS011;59286;59.274;17.974;2023-10-13T11:35:36;11.93;;;2.90;;
71475;SDS011;59286;59.274;17.974;2023-10-13T11:38:18;9.80;;;2.00;;
71475;SDS011;59286;59.274;17.974;2023-10-13T11:40:58;10.27;;;2.13;;
71475;SDS011;59286;59.274;17.974;2023-10-13T11:48:35;12.30;;;2.28;;
71475;SDS011;59286;59.274;17.974;2023-10-13T11:51:03;10.63;;;2.50;;
71475;SDS011;59286;59.274;17.974;2023-10-13T11:53:32;15.35;;;3.05;;
71475;SDS011;59286;59.274;17.974;2023-10-13T11:55:59;14.07;;;2.70;;
71475;SDS011;59286;59.274;17.974;2023-10-13T11:58:24;11.88;;;2.15;;
71475;SDS011;59286;59.274;17.974;2023-10-13T12:00:49;14.68;;;2.88;;
71475;SDS011;59286;59.274;17.974;2023-10-13T12:03:34;18.85;;;3.17;;
71475;SDS011;59286;59.274;17.974;2023-10-13T12:06:18;13.82;;;2.75;;
71475;SDS011;59286;59.274;17.974;2023-10-13T12:08:59;10.27;;;2.47;;
71475;SDS011;59286;59.274;17.974;2023-10-13T12:11:39;13.13;;;2.40;;
71475;SDS011;59286;59.274;17.974;2023-10-13T12:14:07;11.77;;;2.90;;
71475;SDS011;59286;59.274;17.974;2023-10-13T12:16:49;11.85;;;2.80;;
71475;SDS011;59286;59.274;17.974;2023-10-13T12:19:19;12.50;;;2.17;;
71475;SDS011;59286;59.274;17.974;2023-10-13T12:21:49;14.88;;;2.83;;
71475;SDS011;59286;59.274;17.974;2023-10-13T12:24:24;13.80;;;2.08;;
71475;SDS011;59286;59.274;17.974;2023-10-13T12:27:01;13.45;;;2.30;;
71475;SDS011;59286;59.274;17.974;2023-10-13T12:29:46;16.83;;;2.60;;
71475;SDS011;59286;59.274;17.974;2023-10-13T12:32:16;13.35;;;2.53;;
71475;SDS011;59286;59.274;17.974;2023-10-13T12:34:47;14.10;;;2.75;;
71475;SDS011;59286;59.274;17.974;2023-10-13T12:37:41;16.90;;;3.33;;
71475;SDS011;59286;59.274;17.974;2023-10-13T12:42:52;12.23;;;2.30;;
71475;SDS011;59286;59.274;17.974;2023-10-13T12:45:42;16.90;;;2.80;;
71475;SDS011;59286;59.274;17.974;2023-10-13T12:48:27;11.25;;;2.50;;
71475;SDS011;59286;59.274;17.974;2023-10-13T12:51:13;13.03;;;2.77;;
71475;SDS011;59286;59.274;17.974;2023-10-13T12:53:56;10.90;;;2.65;;
71475;SDS011;59286;59.274;17.974;2023-10-13T12:56:45;14.27;;;2.58;;
71475;SDS011;59286;59.274;17.974;2023-10-13T12:59:11;11.77;;;2.42;;
71475;SDS011;59286;59.274;17.974;2023-10-13T13:01:40;15.20;;;2.80;;
71475;SDS011;59286;59.274;17.974;2023-10-13T13:04:11;15.02;;;2.60;;
71475;SDS011;59286;59.274;17.974;2023-10-13T13:06:43;17.33;;;2.97;;
71475;SDS011;59286;59.274;17.974;2023-10-13T13:09:09;14.15;;;2.67;;
71475;SDS011;59286;59.274;17.974;2023-10-13T13:11:35;16.05;;;2.80;;
71475;SDS011;59286;59.274;17.974;2023-10-13T13:14:05;15.75;;;3.05;;
71475;SDS011;59286;59.274;17.974;2023-10-13T13:16:33;14.55;;;2.97;;
71475;SDS011;59286;59.274;17.974;2023-10-13T13:18:58;12.25;;;2.85;;
71475;SDS011;59286;59.274;17.974;2023-10-13T13:21:23;16.48;;;2.88;;
71475;SDS011;59286;59.274;17.974;2023-10-13T13:23:52;16.27;;;3.20;;
71475;SDS011;59286;59.274;17.974;2023-10-13T13:26:19;18.55;;;2.88;;
71475;SDS011;59286;59.274;17.974;2023-10-13T13:28:46;14.65;;;2.60;;
71475;SDS011;59286;59.274;17.974;2023-10-13T13:31:15;11.38;;;2.33;;
71475;SDS011;59286;59.274;17.974;2023-10-13T13:33:40;16.15;;;2.97;;
71475;SDS011;59286;59.274;17.974;2023-10-13T13:36:09;13.98;;;2.47;;
71475;SDS011;59286;59.274;17.974;2023-10-13T13:38:43;13.38;;;2.90;;
71475;SDS011;59286;59.274;17.974;2023-10-13T13:41:14;12.98;;;3.08;;
71475;SDS011;59286;59.274;17.974;2023-10-13T13:43:43;18.65;;;3.20;;
71475;SDS011;59286;59.274;17.974;2023-10-13T13:46:17;16.05;;;2.92;;
71475;SDS011;59286;59.274;17.974;2023-10-13T13:48:54;17.40;;;3.10;;
71475;SDS011;59286;59.274;17.974;2023-10-13T13:51:32;9.80;;;2.42;;
71475;SDS011;59286;59.274;17.974;2023-10-13T13:53:58;13.60;;;2.80;;
71475;SDS011;59286;59.274;17.974;2023-10-13T13:56:25;17.73;;;2.90;;
71475;SDS011;59286;59.274;17.974;2023-10-13T13:58:53;14.25;;;2.55;;
71475;SDS011;59286;59.274;17.974;2023-10-13T14:01:19;14.63;;;2.70;;
71475;SDS011;59286;59.274;17.974;2023-10-13T14:03:51;18.40;;;3.20;;
71475;SDS011;59286;59.274;17.974;2023-10-13T14:06:17;14.68;;;2.53;;
71475;SDS011;59286;59.274;17.974;2023-10-13T14:08:53;13.43;;;2.75;;
71475;SDS011;59286;59.274;17.974;2023-10-13T14:11:23;15.40;;;2.83;;
71475;SDS011;59286;59.274;17.974;2023-10-13T14:14:05;14.63;;;2.95;;
71475;SDS011;59286;59.274;17.974;2023-10-13T14:16:38;17.17;;;3.25;;
71475;SDS011;59286;59.274;17.974;2023-10-13T14:19:09;19.48;;;3.40;;
71475;SDS011;59286;59.274;17.974;2023-10-13T14:21:35;16.02;;;3.30;;
71475;SDS011;59286;59.274;17.974;2023-10-13T14:24:01;19.25;;;3.28;;
71475;SDS011;59286;59.274;17.974;2023-10-13T14:26:27;17.95;;;3.15;;
71475;SDS011;59286;59.274;17.974;2023-10-13T14:28:53;14.25;;;2.97;;
71475;SDS011;59286;59.274;17.974;2023-10-13T14:31:45;18.00;;;3.03;;
71475;SDS011;59286;59.274;17.974;2023-10-13T14:34:13;19.45;;;3.33;;
71475;SDS011;59286;59.274;17.974;2023-10-13T14:36:40;15.05;;;2.83;;
71475;SDS011;59286;59.274;17.974;2023-10-13T14:39:06;16.67;;;2.72;;
71475;SDS011;59286;59.274;17.974;2023-10-13T14:41:34;11.65;;;2.60;;
71475;SDS011;59286;59.274;17.974;2023-10-13T14:44:05;15.07;;;2.85;;
71475;SDS011;59286;59.274;17.974;2023-10-13T14:46:32;19.80;;;3.20;;
71475;SDS011;59286;59.274;17.974;2023-10-13T14:49:01;15.88;;;3.25;;
71475;SDS011;59286;59.274;17.974;2023-10-13T14:51:27;19.25;;;3.70;;
71475;SDS011;59286;59.274;17.974;2023-10-13T14:53:53;17.50;;;3.63;;
71475;SDS011;59286;59.274;17.974;2023-10-13T14:56:21;16.50;;;3.00;;
71475;SDS011;59286;59.274;17.974;2023-10-13T14:58:51;17.20;;;2.97;;
71475;SDS011;59286;59.274;17.974;2023-10-13T15:01:18;18.20;;;4.22;;
71475;SDS011;59286;59.274;17.974;2023-10-13T15:03:45;25.35;;;4.60;;
71475;SDS011;59286;59.274;17.974;2023-10-13T15:06:18;16.20;;;3.30;;
71475;SDS011;59286;59.274;17.974;2023-10-13T15:08:50;21.02;;;4.00;;
71475;SDS011;59286;59.274;17.974;2023-10-13T15:11:19;16.02;;;3.38;;
71475;SDS011;59286;59.274;17.974;2023-10-13T15:13:45;19.48;;;3.50;;
71475;SDS011;59286;59.274;17.974;2023-10-13T15:16:15;23.67;;;4.00;;
71475;SDS011;59286;59.274;17.974;2023-10-13T15:18:42;18.77;;;3.20;;
71475;SDS011;59286;59.274;17.974;2023-10-13T15:21:20;23.85;;;3.83;;
71475;SDS011;59286;59.274;17.974;2023-10-13T15:23:48;22.70;;;4.20;;
71475;SDS011;59286;59.274;17.974;2023-10-13T15:26:16;23.25;;;4.95;;
71475;SDS011;59286;59.274;17.974;2023-10-13T15:28:41;19.45;;;4.68;;
71475;SDS011;59286;59.274;17.974;2023-10-13T15:31:14;20.13;;;4.97;;
71475;SDS011;59286;59.274;17.974;2023-10-13T15:34:02;23.55;;;5.28;;
71475;SDS011;59286;59.274;17.974;2023-10-13T15:39:17;24.10;;;6.00;;
71475;SDS011;59286;59.274;17.974;2023-10-13T15:41:48;21.02;;;4.60;;
71475;SDS011;59286;59.274;17.974;2023-10-13T15:44:17;19.58;;;4.10;;
71475;SDS011;59286;59.274;17.974;2023-10-13T15:46:45;20.02;;;4.15;;
71475;SDS011;59286;59.274;17.974;2023-10-13T15:49:14;25.67;;;4.63;;
71475;SDS011;59286;59.274;17.974;2023-10-13T15:51:41;24.60;;;3.80;;
71475;SDS011;59286;59.274;17.974;2023-10-13T15:54:07;21.67;;;4.32;;